Time;durP1;ratioP1;P1;durP2;ratioP2;P2;SDS_P1;SDS_P2;PMS_P1;PMS_P2;Temp;Humidity;BMP_temperature;BMP_pressure;BME280_temperature;BME280_humidity;BME280_pressure;Samples;Min_cycle;Max_cycle;Signal;HPM_P1;HPM_P2
2022/11/07 00:00:37;;;;;;;20.88;14.55;;;7.60;99.90;;;;;;2040241;29;20490;-75
2022/11/07 00:01:54;;;;;;;22.73;15.55;;;7.60;99.90;;;;;;2040227;29;20024;-74
2022/11/07 00:02:58;;;;;;;23.77;15.80;;;7.60;99.90;;;;;;2039662;29;20098;-75
2022/11/07 00:04:02;;;;;;;23.50;15.75;;;7.60;99.90;;;;;;2039530;29;20015;-74
2022/11/07 00:05:05;;;;;;;22.13;15.15;;;7.60;99.90;;;;;;2031786;29;20024;-75
2022/11/07 00:06:06;;;;;;;21.65;14.52;;;7.70;99.90;;;;;;2032222;29;20032;-75
2022/11/07 00:07:07;;;;;;;20.30;14.07;;;7.70;99.90;;;;;;2040049;29;20031;-75
2022/11/07 00:08:08;;;;;;;21.73;14.15;;;7.70;99.90;;;;;;2040478;29;20032;-74
2022/11/07 00:09:09;;;;;;;21.45;14.10;;;7.70;99.90;;;;;;2040320;29;20047;-74
2022/11/07 00:10:09;;;;;;;19.52;13.57;;;7.70;99.90;;;;;;2039916;29;20036;-75
2022/11/07 00:11:10;;;;;;;19.65;13.55;;;7.70;99.90;;;;;;2039599;29;20131;-76
2022/11/07 00:12:10;;;;;;;20.15;13.82;;;7.70;99.90;;;;;;2040258;29;20461;-76
2022/11/07 00:13:11;;;;;;;22.15;14.85;;;7.80;99.90;;;;;;2040060;29;20051;-75
2022/11/07 00:14:13;;;;;;;23.48;15.68;;;7.80;99.90;;;;;;2040115;29;20039;-76
2022/11/07 00:15:13;;;;;;;21.88;14.70;;;7.80;99.90;;;;;;2039907;29;20462;-76
2022/11/07 00:16:15;;;;;;;21.92;14.85;;;7.80;99.90;;;;;;2039725;29;20102;-76
2022/11/07 00:17:17;;;;;;;23.75;15.38;;;7.80;99.90;;;;;;2040847;29;20026;-74
2022/11/07 00:18:17;;;;;;;22.40;15.30;;;7.80;99.90;;;;;;2044572;29;20040;-74
2022/11/07 00:19:20;;;;;;;21.10;15.02;;;7.80;99.90;;;;;;2044513;29;20498;-75
2022/11/07 00:20:21;;;;;;;22.08;14.52;;;7.80;99.90;;;;;;2043381;29;20087;-77
2022/11/07 00:21:22;;;;;;;23.20;14.95;;;7.80;99.90;;;;;;2040715;29;20040;-76
2022/11/07 00:22:22;;;;;;;22.02;14.27;;;7.80;99.90;;;;;;2040278;29;20024;-75
2022/11/07 00:23:23;;;;;;;24.98;15.48;;;7.80;99.90;;;;;;2040352;29;20062;-76
2022/11/07 00:24:24;;;;;;;25.48;16.15;;;7.80;99.90;;;;;;2039223;29;20027;-76
2022/11/07 00:25:24;;;;;;;26.48;16.30;;;7.80;99.90;;;;;;2031601;29;20390;-76
2022/11/07 00:26:25;;;;;;;25.15;15.95;;;7.80;99.90;;;;;;2039454;29;20027;-76
2022/11/07 00:27:26;;;;;;;25.13;15.68;;;7.80;99.90;;;;;;2040194;29;20063;-76
2022/11/07 00:28:26;;;;;;;23.05;14.85;;;7.90;99.90;;;;;;2040193;29;20027;-75
2022/11/07 00:29:27;;;;;;;22.23;14.88;;;7.90;99.90;;;;;;2039486;29;20536;-76
2022/11/07 00:30:27;;;;;;;21.55;14.07;;;7.90;99.90;;;;;;2039326;29;20082;-76
2022/11/07 00:31:28;;;;;;;22.80;15.15;;;7.90;99.90;;;;;;2039999;29;20023;-76
2022/11/07 00:32:29;;;;;;;22.63;14.43;;;7.90;99.90;;;;;;2039467;29;20039;-76
2022/11/07 00:33:30;;;;;;;24.63;16.10;;;7.90;99.90;;;;;;2039179;29;20035;-76
2022/11/07 00:34:34;;;;;;;23.60;15.40;;;7.90;99.90;;;;;;2039813;29;20031;-75
2022/11/07 00:35:38;;;;;;;21.10;14.20;;;7.90;99.90;;;;;;2039944;29;20074;-75
2022/11/07 00:36:39;;;;;;;21.15;14.23;;;7.90;99.90;;;;;;2047122;29;20046;-75
2022/11/07 00:37:40;;;;;;;24.95;15.82;;;7.90;99.90;;;;;;2047413;29;20055;-75
2022/11/07 00:38:40;;;;;;;27.73;16.60;;;7.90;99.90;;;;;;2039865;29;20039;-75
2022/11/07 00:39:41;;;;;;;23.30;15.80;;;7.90;99.90;;;;;;2040046;29;20035;-75
2022/11/07 00:40:42;;;;;;;25.42;15.63;;;7.90;99.90;;;;;;2039919;29;20040;-74
2022/11/07 00:41:45;;;;;;;23.05;15.52;;;7.90;99.90;;;;;;2039416;29;20772;-75
2022/11/07 00:42:46;;;;;;;25.80;16.02;;;8.00;99.90;;;;;;2038799;29;20035;-75
2022/11/07 00:43:47;;;;;;;27.40;17.17;;;8.00;99.90;;;;;;2039073;29;20360;-74
2022/11/07 00:44:47;;;;;;;28.65;17.55;;;7.90;99.90;;;;;;2039470;29;20055;-75
2022/11/07 00:45:48;;;;;;;25.60;16.35;;;7.90;99.90;;;;;;2039843;29;20051;-74
2022/11/07 00:46:49;;;;;;;25.90;16.20;;;7.90;99.90;;;;;;2039837;29;20050;-75
2022/11/07 00:48:38;;;;;;;23.52;15.50;;;7.90;99.90;;;;;;2039965;29;20032;-76
2022/11/07 00:52:33;;;;;;;23.85;14.95;;;7.90;99.90;;;;;;2030432;29;20047;-75
2022/11/07 00:54:22;;;;;;;28.35;16.65;;;7.90;99.90;;;;;;2027611;29;20160;-75
2022/11/07 00:56:03;;;;;;;25.25;15.50;;;7.90;99.90;;;;;;2022700;29;20045;-76
2022/11/07 00:57:40;;;;;;;;;;;;;;;;;;;;;
2022/11/07 00:59:44;;;;;;;;;;;;;;;;;;;;;
2022/11/07 01:01:45;;;;;;;25.48;15.48;;;7.90;99.90;;;;;;2026620;29;20047;-76
2022/11/07 01:07:07;;;;;;;22.55;14.40;;;7.90;99.90;;;;;;2365616;23;20029;-76
2022/11/07 01:09:00;;;;;;;23.30;14.68;;;7.90;99.90;;;;;;2045292;28;20209;-76
2022/11/07 01:13:28;;;;;;;25.08;15.50;;;7.90;99.90;;;;;;2055518;28;20035;-78
2022/11/07 01:15:14;;;;;;;;;;;7.90;99.90;;;;;;2055458;28;20105;-77
2022/11/07 01:16:51;;;;;;;26.95;16.65;;;7.90;99.90;;;;;;2054383;28;19910;-76
2022/11/07 01:18:26;;;;;;;28.38;17.27;;;7.90;99.90;;;;;;2045847;29;20504;-75
2022/11/07 01:19:35;;;;;;;25.95;16.67;;;7.90;99.90;;;;;;2038468;29;20035;-77
2022/11/07 01:21:14;;;;;;;;;;;;;;;;;;;;;
2022/11/07 01:23:18;;;;;;;29.00;17.77;;;7.90;99.90;;;;;;2053361;28;20043;-76
2022/11/07 01:24:37;;;;;;;27.00;17.58;;;7.90;99.90;;;;;;2054393;28;20035;-75
2022/11/07 01:25:38;;;;;;;27.15;17.73;;;7.90;99.90;;;;;;2055196;28;20584;-75
2022/11/07 01:26:41;;;;;;;29.33;18.25;;;7.90;99.90;;;;;;2055320;28;20027;-75
2022/11/07 01:27:42;;;;;;;26.67;17.45;;;7.90;99.90;;;;;;2055055;28;20089;-76
2022/11/07 01:28:42;;;;;;;27.52;17.25;;;7.90;99.90;;;;;;2054934;28;20180;-75
2022/11/07 01:29:43;;;;;;;27.40;17.85;;;7.90;99.90;;;;;;2055845;28;20504;-75
2022/11/07 01:30:44;;;;;;;27.65;17.38;;;7.90;99.90;;;;;;2054969;28;20398;-75
2022/11/07 01:31:45;;;;;;;33.70;19.77;;;7.90;99.90;;;;;;2055051;28;20043;-76
2022/11/07 01:32:46;;;;;;;33.35;19.70;;;7.90;99.90;;;;;;2055050;28;20023;-75
2022/11/07 01:33:46;;;;;;;30.58;18.67;;;7.90;99.90;;;;;;2055187;28;20030;-75
2022/11/07 01:34:47;;;;;;;29.27;19.00;;;7.90;99.90;;;;;;2056050;28;20564;-75
2022/11/07 01:35:48;;;;;;;29.75;19.30;;;7.90;99.90;;;;;;2055818;28;20034;-75
2022/11/07 01:36:48;;;;;;;30.17;18.88;;;7.90;99.90;;;;;;2055235;28;20034;-75
2022/11/07 01:37:49;;;;;;;32.00;19.60;;;7.90;99.90;;;;;;2055169;28;20031;-76
2022/11/07 01:38:50;;;;;;;29.63;18.75;;;7.90;99.90;;;;;;2054959;28;20042;-76
2022/11/07 01:39:50;;;;;;;31.88;19.38;;;7.90;99.90;;;;;;2055152;28;20384;-75
2022/11/07 01:42:11;;;;;;;33.38;20.42;;;7.90;99.90;;;;;;2055828;28;20396;-75
2022/11/07 01:43:12;;;;;;;33.00;19.73;;;7.90;99.90;;;;;;2054829;28;20114;-74
2022/11/07 01:44:12;;;;;;;32.50;20.02;;;7.90;99.90;;;;;;2054882;28;20082;-76
2022/11/07 01:45:34;;;;;;;32.40;19.35;;;7.90;99.90;;;;;;2055605;28;20034;-75
2022/11/07 01:46:37;;;;;;;32.50;19.55;;;7.90;99.90;;;;;;2056117;28;20097;-76
2022/11/07 01:47:38;;;;;;;29.40;18.42;;;7.90;99.90;;;;;;2056057;28;20026;-75
2022/11/07 01:48:43;;;;;;;33.20;20.00;;;7.80;99.90;;;;;;2055306;28;20474;-77
2022/11/07 01:49:44;;;;;;;31.95;20.00;;;7.80;99.90;;;;;;2055351;28;20054;-75
2022/11/07 01:50:44;;;;;;;32.25;19.45;;;7.80;99.90;;;;;;2055832;28;20035;-77
2022/11/07 01:51:51;;;;;;;29.02;18.13;;;7.80;99.90;;;;;;2055744;28;20034;-75
2022/11/07 01:52:53;;;;;;;33.83;20.40;;;7.80;99.90;;;;;;2055157;28;20026;-75
2022/11/07 01:53:55;;;;;;;32.13;19.48;;;7.80;99.90;;;;;;2047196;28;20074;-74
2022/11/07 01:55:14;;;;;;;32.83;20.20;;;7.80;99.90;;;;;;2055104;28;20031;-76
2022/11/07 01:56:16;;;;;;;35.85;20.95;;;7.80;99.90;;;;;;2057586;28;20736;-76
2022/11/07 01:57:24;;;;;;;34.15;20.40;;;7.80;99.90;;;;;;2056488;28;20058;-75
2022/11/07 01:58:25;;;;;;;31.65;19.50;;;7.70;99.90;;;;;;2049611;28;20488;-74
2022/11/07 01:59:30;;;;;;;34.70;20.20;;;7.70;99.90;;;;;;2048777;29;20031;-75
2022/11/07 02:00:32;;;;;;;32.53;19.35;;;7.70;99.90;;;;;;2049303;28;20047;-77
2022/11/07 02:01:32;;;;;;;31.80;19.77;;;7.70;99.90;;;;;;2048780;28;20024;-75
2022/11/07 02:02:34;;;;;;;34.75;20.30;;;7.70;99.90;;;;;;2048728;29;20038;-75
2022/11/07 02:03:35;;;;;;;30.92;19.20;;;7.70;99.90;;;;;;2048420;28;20031;-75
2022/11/07 02:04:36;;;;;;;30.20;18.83;;;7.60;99.90;;;;;;2056608;28;20114;-75
2022/11/07 02:05:56;;;;;;;33.85;20.52;;;7.70;99.90;;;;;;2056883;28;20034;-74
2022/11/07 02:07:15;;;;;;;33.83;20.02;;;7.60;99.90;;;;;;2051558;28;20035;-75
2022/11/07 02:08:16;;;;;;;35.38;20.05;;;7.60;99.90;;;;;;2050995;28;20417;-75
2022/11/07 02:09:17;;;;;;;35.13;21.25;;;7.60;99.90;;;;;;2056796;28;20035;-76
2022/11/07 02:10:19;;;;;;;35.42;21.23;;;7.50;99.90;;;;;;2056856;28;20028;-74
2022/11/07 02:11:21;;;;;;;35.72;21.15;;;7.50;99.90;;;;;;2056580;28;20402;-75
2022/11/07 02:12:23;;;;;;;35.28;21.10;;;7.50;99.90;;;;;;2056517;28;20058;-77
2022/11/07 02:13:29;;;;;;;36.90;21.30;;;7.40;99.90;;;;;;2057325;28;20039;-75
2022/11/07 02:14:30;;;;;;;36.00;21.23;;;7.40;99.90;;;;;;2057446;28;20496;-75
2022/11/07 02:15:33;;;;;;;39.03;21.27;;;7.40;99.90;;;;;;2056811;28;20058;-74
2022/11/07 02:16:35;;;;;;;35.75;21.60;;;7.40;99.90;;;;;;2056758;28;20058;-76
2022/11/07 02:17:35;;;;;;;39.95;22.38;;;7.30;99.90;;;;;;2056667;28;20039;-73
2022/11/07 02:18:40;;;;;;;38.50;22.27;;;7.30;99.90;;;;;;2056939;28;20105;-75
2022/11/07 02:19:47;;;;;;;37.35;22.33;;;7.30;99.90;;;;;;2049480;28;20038;-75
2022/11/07 02:20:50;;;;;;;38.95;21.63;;;7.30;99.90;;;;;;2062840;28;20034;-76
2022/11/07 02:22:02;;;;;;;35.95;21.30;;;7.30;99.90;;;;;;2066125;28;20039;-76
2022/11/07 02:23:41;;;;;;;38.28;21.83;;;7.20;99.90;;;;;;2066135;28;20029;-76
2022/11/07 02:24:41;;;;;;;36.50;21.05;;;7.20;99.90;;;;;;2057919;28;20299;-75
2022/11/07 02:25:43;;;;;;;39.55;21.95;;;7.10;99.90;;;;;;2065919;28;20031;-75
2022/11/07 02:26:44;;;;;;;39.95;22.60;;;7.10;99.90;;;;;;2066095;28;20042;-77
2022/11/07 02:27:48;;;;;;;37.17;22.33;;;7.10;99.90;;;;;;2064725;28;20035;-76
2022/11/07 02:28:50;;;;;;;37.47;21.65;;;7.00;99.90;;;;;;2062868;28;20054;-77
2022/11/07 02:29:57;;;;;;;35.58;20.80;;;7.00;99.90;;;;;;2047008;28;20040;-75
2022/11/07 02:30:58;;;;;;;33.83;20.05;;;7.00;99.90;;;;;;2056680;28;20610;-76
2022/11/07 02:32:03;;;;;;;34.20;19.75;;;6.90;99.90;;;;;;2054093;28;20043;-77
2022/11/07 02:33:19;;;;;;;34.35;19.98;;;6.90;99.90;;;;;;2045271;28;20035;-77
2022/11/07 02:34:19;;;;;;;35.03;20.35;;;6.90;99.90;;;;;;2060847;28;20038;-76
2022/11/07 02:35:39;;;;;;;36.42;20.50;;;6.90;99.90;;;;;;2062645;28;20023;-76
2022/11/07 02:36:40;;;;;;;38.00;20.90;;;6.80;99.90;;;;;;2060930;28;20082;-76
2022/11/07 02:37:41;;;;;;;38.03;20.98;;;6.80;99.90;;;;;;2061971;28;20122;-76
2022/11/07 02:38:42;;;;;;;42.75;23.45;;;6.80;99.90;;;;;;2061398;28;20026;-75
2022/11/07 02:39:43;;;;;;;40.60;23.02;;;6.80;99.90;;;;;;2060243;28;20027;-76
2022/11/07 02:40:49;;;;;;;38.15;22.35;;;6.80;99.90;;;;;;2060708;28;20469;-76
2022/11/07 02:41:51;;;;;;;38.85;21.75;;;6.80;99.90;;;;;;2059647;28;20664;-77
2022/11/07 02:42:51;;;;;;;39.15;21.23;;;6.80;99.90;;;;;;2058212;28;20130;-75
2022/11/07 02:43:57;;;;;;;36.80;21.02;;;6.80;99.90;;;;;;2056648;28;20035;-76
2022/11/07 02:44:57;;;;;;;36.95;20.63;;;6.80;99.90;;;;;;2056725;28;20105;-76
2022/11/07 02:46:01;;;;;;;39.13;21.70;;;6.70;99.90;;;;;;2057553;28;20023;-76
2022/11/07 02:47:02;;;;;;;41.72;23.10;;;6.70;99.90;;;;;;2057397;28;20046;-75
2022/11/07 02:48:03;;;;;;;43.55;24.17;;;6.70;99.90;;;;;;2057195;28;20027;-77
2022/11/07 02:49:04;;;;;;;41.78;23.10;;;6.70;99.90;;;;;;2057371;28;20066;-75
2022/11/07 02:50:10;;;;;;;39.35;22.13;;;6.80;99.90;;;;;;2056575;28;20035;-76
2022/11/07 02:51:11;;;;;;;42.60;23.83;;;6.70;99.90;;;;;;2056595;28;20035;-75
2022/11/07 02:52:11;;;;;;;41.17;23.35;;;6.80;99.90;;;;;;2056879;28;20137;-76
2022/11/07 02:53:12;;;;;;;44.17;23.15;;;6.80;99.90;;;;;;2056704;28;20166;-76
2022/11/07 02:54:12;;;;;;;41.08;23.23;;;6.80;99.90;;;;;;2056999;28;20089;-76
2022/11/07 02:55:14;;;;;;;39.95;22.73;;;6.80;99.90;;;;;;2048913;29;20548;-74
2022/11/07 02:56:14;;;;;;;41.00;23.13;;;6.80;99.90;;;;;;2057368;28;20084;-76
2022/11/07 02:57:15;;;;;;;41.40;23.45;;;6.80;99.90;;;;;;2057358;28;20498;-76
2022/11/07 02:58:16;;;;;;;39.60;23.35;;;6.80;99.90;;;;;;2057701;28;20085;-75
2022/11/07 02:59:16;;;;;;;40.65;22.92;;;6.80;99.90;;;;;;2057824;28;20088;-75
2022/11/07 03:00:17;;;;;;;42.88;22.33;;;6.80;99.90;;;;;;2058485;28;20505;-75
2022/11/07 03:01:18;;;;;;;40.58;22.70;;;6.70;99.90;;;;;;2057296;28;20531;-76
2022/11/07 03:02:19;;;;;;;42.35;24.33;;;6.80;99.90;;;;;;2057328;28;20062;-75
2022/11/07 03:03:20;;;;;;;39.72;22.90;;;6.80;99.90;;;;;;2057596;28;20495;-75
2022/11/07 03:04:22;;;;;;;37.55;22.20;;;6.70;99.90;;;;;;2057078;28;20126;-75
2022/11/07 03:05:23;;;;;;;38.42;21.55;;;6.70;99.90;;;;;;2056881;28;20022;-76
2022/11/07 03:06:24;;;;;;;35.63;21.35;;;6.70;99.90;;;;;;2056096;28;20844;-75
2022/11/07 03:07:25;;;;;;;39.03;21.85;;;6.60;99.90;;;;;;2056205;28;20465;-76
2022/11/07 03:08:26;;;;;;;39.75;22.30;;;6.60;99.90;;;;;;2056434;28;20397;-74
2022/11/07 03:09:27;;;;;;;40.40;23.00;;;6.60;99.90;;;;;;2057114;28;20031;-74
2022/11/07 03:10:27;;;;;;;38.42;22.15;;;6.60;99.90;;;;;;2056764;28;20031;-76
2022/11/07 03:11:28;;;;;;;40.25;22.20;;;6.60;99.90;;;;;;2056269;28;20047;-75
2022/11/07 03:12:29;;;;;;;41.60;22.90;;;6.60;99.90;;;;;;2057470;28;20747;-75
2022/11/07 03:13:29;;;;;;;37.97;21.55;;;6.60;99.90;;;;;;2056713;28;20502;-76
2022/11/07 03:14:30;;;;;;;36.88;21.15;;;6.60;99.90;;;;;;2055958;28;20537;-75
2022/11/07 03:15:31;;;;;;;35.10;20.70;;;6.60;99.90;;;;;;2056074;28;20034;-75
2022/11/07 03:16:31;;;;;;;35.10;20.05;;;6.50;99.90;;;;;;2055551;28;20158;-77
2022/11/07 03:17:32;;;;;;;36.28;21.05;;;6.50;99.90;;;;;;2055741;28;20026;-75
2022/11/07 03:18:33;;;;;;;35.97;20.83;;;6.50;99.90;;;;;;2055888;28;20472;-75
2022/11/07 03:19:34;;;;;;;37.00;20.38;;;6.50;99.90;;;;;;2056718;28;20102;-75
2022/11/07 03:20:34;;;;;;;43.33;24.13;;;6.50;99.90;;;;;;2056725;28;20035;-76
2022/11/07 03:21:35;;;;;;;45.00;24.75;;;6.50;99.90;;;;;;2056115;28;20035;-75
2022/11/07 03:22:36;;;;;;;45.25;24.73;;;6.50;99.90;;;;;;2055912;28;20078;-75
2022/11/07 03:23:36;;;;;;;42.25;23.50;;;6.50;99.90;;;;;;2055656;28;20455;-74
2022/11/07 03:24:37;;;;;;;40.90;22.67;;;6.50;99.90;;;;;;2055915;28;20034;-75
2022/11/07 03:25:38;;;;;;;39.95;22.98;;;6.40;99.90;;;;;;2056103;28;20292;-75
2022/11/07 03:26:39;;;;;;;36.78;21.67;;;6.40;99.90;;;;;;2055989;28;20027;-74
2022/11/07 03:27:49;;;;;;;35.55;20.92;;;6.40;99.90;;;;;;2055767;28;20081;-74
2022/11/07 03:28:49;;;;;;;35.72;20.48;;;6.40;99.90;;;;;;2056561;28;20035;-74
2022/11/07 03:29:50;;;;;;;36.85;21.02;;;6.40;99.90;;;;;;2055720;28;20035;-75
2022/11/07 03:30:51;;;;;;;32.92;19.75;;;6.40;99.90;;;;;;2055608;28;20035;-75
2022/11/07 03:31:52;;;;;;;37.17;21.05;;;6.40;99.90;;;;;;2056404;28;20046;-74
2022/11/07 03:32:52;;;;;;;36.10;21.38;;;6.30;99.90;;;;;;2056231;28;20049;-75
2022/11/07 03:33:53;;;;;;;36.63;20.98;;;6.30;99.90;;;;;;2055946;28;20105;-74
2022/11/07 03:34:53;;;;;;;39.55;22.08;;;6.30;99.90;;;;;;2056357;28;20444;-74
2022/11/07 03:35:54;;;;;;;35.88;21.45;;;6.30;99.90;;;;;;2055635;28;20041;-76
2022/11/07 03:36:55;;;;;;;34.80;20.58;;;6.30;99.90;;;;;;2047779;28;20134;-75
2022/11/07 03:37:55;;;;;;;41.92;23.20;;;6.30;99.90;;;;;;2047858;28;20066;-74
2022/11/07 03:38:56;;;;;;;41.85;23.00;;;6.30;99.90;;;;;;2055683;28;20065;-75
2022/11/07 03:39:57;;;;;;;38.78;22.27;;;6.30;99.90;;;;;;2056595;28;20026;-74
2022/11/07 03:40:57;;;;;;;36.20;21.58;;;6.30;99.90;;;;;;2056486;28;20030;-76
2022/11/07 03:41:58;;;;;;;35.67;20.48;;;6.30;99.90;;;;;;2056592;28;20030;-74
2022/11/07 03:42:59;;;;;;;34.75;20.02;;;6.30;99.90;;;;;;2056390;28;20019;-74
2022/11/07 03:43:59;;;;;;;38.22;21.90;;;6.30;99.90;;;;;;2055443;28;20018;-75
2022/11/07 03:45:00;;;;;;;37.90;21.88;;;6.30;99.90;;;;;;2055861;28;20034;-75
2022/11/07 03:46:00;;;;;;;38.28;21.58;;;6.30;99.90;;;;;;2055856;28;20102;-74
2022/11/07 03:47:01;;;;;;;34.97;21.05;;;6.30;99.90;;;;;;2055825;28;20022;-73
2022/11/07 03:48:02;;;;;;;36.90;20.30;;;6.20;99.90;;;;;;2055791;28;20029;-74
2022/11/07 03:49:02;;;;;;;35.83;21.33;;;6.20;99.90;;;;;;2055816;28;20123;-75
2022/11/07 03:50:04;;;;;;;33.67;19.92;;;6.20;99.90;;;;;;2055745;28;20027;-74
2022/11/07 03:51:07;;;;;;;35.28;20.40;;;6.20;99.90;;;;;;2056084;28;20531;-74
2022/11/07 03:52:08;;;;;;;40.15;22.83;;;6.20;99.90;;;;;;2055371;28;20035;-75
2022/11/07 03:53:08;;;;;;;42.70;23.48;;;6.20;99.90;;;;;;2055439;28;20182;-74
2022/11/07 03:54:09;;;;;;;43.17;23.20;;;6.20;99.90;;;;;;2055829;28;20051;-75
2022/11/07 03:55:10;;;;;;;38.63;22.25;;;6.30;99.90;;;;;;2056202;28;20062;-75
2022/11/07 03:56:12;;;;;;;38.40;21.63;;;6.30;99.90;;;;;;2056222;28;20043;-74
2022/11/07 03:57:12;;;;;;;36.75;21.27;;;6.40;99.90;;;;;;2055541;28;20042;-76
2022/11/07 03:58:13;;;;;;;36.38;21.52;;;6.40;99.90;;;;;;2055487;28;20753;-75
2022/11/07 03:59:14;;;;;;;38.88;22.45;;;6.40;99.90;;;;;;2055490;28;20066;-75
2022/11/07 04:00:16;;;;;;;36.47;21.30;;;6.50;99.90;;;;;;2055540;28;20027;-74
2022/11/07 04:01:16;;;;;;;39.10;21.85;;;6.50;99.90;;;;;;2055365;28;20019;-74
2022/11/07 04:02:18;;;;;;;41.00;23.90;;;6.50;99.90;;;;;;2055497;28;20853;-75
2022/11/07 04:03:18;;;;;;;39.55;23.15;;;6.60;99.90;;;;;;2055448;28;20034;-74
2022/11/07 04:04:19;;;;;;;38.70;22.00;;;6.70;99.90;;;;;;2055156;28;20042;-75
2022/11/07 04:05:20;;;;;;;36.08;20.77;;;6.70;99.90;;;;;;2056204;28;20030;-75
2022/11/07 04:06:21;;;;;;;35.58;20.92;;;6.80;99.90;;;;;;2055483;28;20073;-74
2022/11/07 04:07:22;;;;;;;34.03;19.70;;;6.80;99.90;;;;;;2055517;28;20485;-75
2022/11/07 04:08:23;;;;;;;33.55;20.15;;;6.80;99.90;;;;;;2056207;28;20073;-74
2022/11/07 04:09:23;;;;;;;34.30;19.70;;;6.80;99.90;;;;;;2055522;28;20098;-74
2022/11/07 04:10:24;;;;;;;30.80;18.98;;;6.90;99.90;;;;;;2055423;28;20702;-74
2022/11/07 04:18:02;;;;;;;34.75;20.13;;;7.00;99.90;;;;;;2049739;28;20106;-76
2022/11/07 04:19:03;;;;;;;35.92;21.05;;;7.00;99.90;;;;;;2055439;28;20046;-74
2022/11/07 04:20:06;;;;;;;37.35;21.67;;;7.00;99.90;;;;;;2056282;28;20029;-75
2022/11/07 04:21:06;;;;;;;33.92;20.40;;;7.00;99.90;;;;;;2056228;28;20030;-75
2022/11/07 04:22:07;;;;;;;34.58;19.65;;;7.00;99.90;;;;;;2055614;28;20572;-75
2022/11/07 04:23:07;;;;;;;36.22;20.65;;;7.10;99.90;;;;;;2055467;28;20030;-76
2022/11/07 04:24:08;;;;;;;33.33;19.90;;;7.10;99.90;;;;;;2056330;28;20027;-76
2022/11/07 04:25:09;;;;;;;33.38;19.92;;;7.10;99.90;;;;;;2055541;28;20066;-75
2022/11/07 04:27:41;;;;;;;32.78;19.02;;;7.20;99.90;;;;;;2055958;28;20033;-75
2022/11/07 04:28:42;;;;;;;34.47;19.92;;;7.20;99.90;;;;;;2055935;28;20370;-76
2022/11/07 04:29:42;;;;;;;34.05;20.10;;;7.20;99.90;;;;;;2056075;28;20038;-75
2022/11/07 04:30:43;;;;;;;35.03;20.73;;;7.20;99.90;;;;;;2056363;28;20118;-76
2022/11/07 04:31:44;;;;;;;33.40;20.88;;;7.30;99.90;;;;;;2055505;28;20042;-76
2022/11/07 04:32:46;;;;;;;34.92;20.63;;;7.30;99.90;;;;;;2055492;28;20041;-76
2022/11/07 04:33:47;;;;;;;35.65;20.52;;;7.30;99.90;;;;;;2047490;28;20473;-76
2022/11/07 04:34:48;;;;;;;33.25;19.10;;;7.30;99.90;;;;;;2047421;29;20031;-75
2022/11/07 04:35:48;;;;;;;31.40;19.08;;;7.30;99.90;;;;;;2055634;28;20023;-76
2022/11/07 04:36:49;;;;;;;29.92;19.27;;;7.30;99.90;;;;;;2056517;28;20022;-75
2022/11/07 04:37:49;;;;;;;31.23;19.05;;;7.30;99.90;;;;;;2056130;28;20062;-75
2022/11/07 04:38:50;;;;;;;31.67;19.30;;;7.30;99.90;;;;;;2056106;28;20477;-76
2022/11/07 04:39:51;;;;;;;29.73;18.25;;;7.40;99.90;;;;;;2055676;28;20540;-75
2022/11/07 04:40:53;;;;;;;29.70;18.35;;;7.30;99.90;;;;;;2055978;28;20027;-74
2022/11/07 04:41:55;;;;;;;31.42;18.45;;;7.40;99.90;;;;;;2056508;28;20042;-75
2022/11/07 04:42:56;;;;;;;32.55;19.02;;;7.40;99.90;;;;;;2056579;28;20019;-74
2022/11/07 04:43:56;;;;;;;32.55;19.50;;;7.40;99.90;;;;;;2055512;28;20031;-75
2022/11/07 04:44:57;;;;;;;31.23;19.17;;;7.40;99.90;;;;;;2055400;28;20022;-74
2022/11/07 04:45:58;;;;;;;30.15;18.58;;;7.40;99.90;;;;;;2055247;28;20473;-74
2022/11/07 04:46:58;;;;;;;30.23;18.08;;;7.40;99.90;;;;;;2055876;28;20098;-75
2022/11/07 04:47:59;;;;;;;31.52;18.67;;;7.40;99.90;;;;;;2055059;28;20523;-75
2022/11/07 04:48:59;;;;;;;32.50;19.23;;;7.40;99.90;;;;;;2055200;28;20022;-76
2022/11/07 04:50:01;;;;;;;29.98;18.52;;;7.40;99.90;;;;;;2055637;28;20031;-75
2022/11/07 04:51:01;;;;;;;31.92;18.80;;;7.50;99.90;;;;;;2055469;28;20516;-76
2022/11/07 04:52:02;;;;;;;27.90;18.30;;;7.50;99.90;;;;;;2056144;28;20065;-75
2022/11/07 04:53:03;;;;;;;29.15;17.48;;;7.50;99.90;;;;;;2055265;28;20039;-75
2022/11/07 04:54:03;;;;;;;30.17;17.52;;;7.50;99.90;;;;;;2054745;28;20026;-76
2022/11/07 04:55:06;;;;;;;29.08;18.10;;;7.50;99.90;;;;;;2055351;28;20035;-77
2022/11/07 04:56:07;;;;;;;30.27;17.73;;;7.50;99.90;;;;;;2055256;28;20043;-75
2022/11/07 04:57:08;;;;;;;29.38;18.17;;;7.50;99.90;;;;;;2055495;28;20058;-75
2022/11/07 04:58:09;;;;;;;27.75;16.77;;;7.50;99.90;;;;;;2055842;28;20690;-78
2022/11/07 04:59:09;;;;;;;31.65;18.63;;;7.50;99.90;;;;;;2056035;28;20031;-76
2022/11/07 05:00:11;;;;;;;32.35;19.25;;;7.50;99.90;;;;;;2055516;28;20113;-76
2022/11/07 05:01:11;;;;;;;31.92;18.75;;;7.50;99.90;;;;;;2055157;28;20456;-76
2022/11/07 05:02:12;;;;;;;29.23;18.33;;;7.50;99.90;;;;;;2055961;28;20038;-77
2022/11/07 05:03:13;;;;;;;35.78;20.33;;;7.50;99.90;;;;;;2055068;28;20023;-76
2022/11/07 05:04:13;;;;;;;34.15;19.38;;;7.50;99.90;;;;;;2054587;28;20505;-75
2022/11/07 05:05:15;;;;;;;31.83;19.65;;;7.60;99.90;;;;;;2054793;28;20050;-76
2022/11/07 05:06:15;;;;;;;35.88;20.15;;;7.50;99.90;;;;;;2054803;28;20026;-76
2022/11/07 05:07:17;;;;;;;31.67;19.13;;;7.50;99.90;;;;;;2054759;28;20579;-76
2022/11/07 05:08:18;;;;;;;31.48;18.52;;;7.50;99.90;;;;;;2055078;28;20506;-75
2022/11/07 05:09:19;;;;;;;26.73;17.42;;;7.60;99.90;;;;;;2055562;28;20042;-76
2022/11/07 05:10:23;;;;;;;28.02;17.63;;;7.60;99.90;;;;;;2055531;28;20042;-76
2022/11/07 05:11:24;;;;;;;31.00;18.13;;;7.60;99.90;;;;;;2055306;28;20389;-76
2022/11/07 05:12:25;;;;;;;29.33;17.30;;;7.60;99.90;;;;;;2054853;28;20066;-76
2022/11/07 05:13:25;;;;;;;31.08;18.45;;;7.60;99.90;;;;;;2055143;28;20066;-76
2022/11/07 05:14:26;;;;;;;27.92;17.35;;;7.60;99.90;;;;;;2054767;28;20428;-76
2022/11/07 05:15:26;;;;;;;32.40;19.35;;;7.60;99.90;;;;;;2055846;28;20062;-76
2022/11/07 05:16:29;;;;;;;29.02;17.73;;;7.60;99.90;;;;;;2055038;28;20034;-76
2022/11/07 05:17:30;;;;;;;29.02;18.13;;;7.60;99.90;;;;;;2047200;29;20603;-76
2022/11/07 05:18:31;;;;;;;30.30;18.98;;;7.60;99.90;;;;;;2046909;28;20086;-76
2022/11/07 05:19:31;;;;;;;33.83;19.65;;;7.60;99.90;;;;;;2054900;28;20075;-76
2022/11/07 05:20:35;;;;;;;33.33;19.98;;;7.60;99.90;;;;;;2055916;28;20099;-76
2022/11/07 05:21:36;;;;;;;34.38;19.40;;;7.60;99.90;;;;;;2054955;28;20114;-75
2022/11/07 05:23:55;;;;;;;31.10;18.48;;;7.60;99.90;;;;;;2054873;28;20023;-76
2022/11/07 05:24:56;;;;;;;33.53;20.05;;;7.60;99.90;;;;;;2054754;28;20038;-75
2022/11/07 05:25:57;;;;;;;31.85;17.85;;;7.60;99.90;;;;;;2039094;29;20067;-75
2022/11/07 05:26:58;;;;;;;31.05;18.33;;;7.60;99.90;;;;;;2047144;29;20047;-76
2022/11/07 05:27:59;;;;;;;29.65;18.33;;;7.60;99.90;;;;;;2055374;28;20085;-76
2022/11/07 05:28:59;;;;;;;31.33;18.90;;;7.60;99.90;;;;;;2056564;28;20638;-76
2022/11/07 05:30:00;;;;;;;29.73;18.08;;;7.60;99.90;;;;;;2058093;28;20035;-76
2022/11/07 05:31:03;;;;;;;28.17;18.00;;;7.60;99.90;;;;;;2057655;28;20133;-76
2022/11/07 05:32:03;;;;;;;28.40;16.58;;;7.60;99.90;;;;;;2057682;28;20101;-77
2022/11/07 05:33:04;;;;;;;30.85;18.40;;;7.60;99.90;;;;;;2057727;28;20035;-76
2022/11/07 05:34:05;;;;;;;30.48;17.85;;;7.60;99.90;;;;;;2058262;28;20409;-76
2022/11/07 05:35:05;;;;;;;29.33;18.70;;;7.60;99.90;;;;;;2057538;28;20050;-76
2022/11/07 05:36:16;;;;;;;29.33;18.80;;;7.60;99.90;;;;;;2056943;28;20477;-75
2022/11/07 05:37:17;;;;;;;31.20;18.85;;;7.50;99.90;;;;;;2057021;28;20073;-75
2022/11/07 05:38:18;;;;;;;29.95;18.55;;;7.50;99.90;;;;;;2057107;28;20035;-77
2022/11/07 05:39:19;;;;;;;28.05;18.33;;;7.60;99.90;;;;;;2057412;28;20066;-76
2022/11/07 05:40:19;;;;;;;29.88;19.25;;;7.50;99.90;;;;;;2058019;28;20027;-76
2022/11/07 05:41:21;;;;;;;28.92;18.65;;;7.50;99.90;;;;;;2057554;28;20026;-75
2022/11/07 05:42:21;;;;;;;31.13;19.10;;;7.50;99.90;;;;;;2056659;28;20128;-77
2022/11/07 05:43:23;;;;;;;29.42;18.85;;;7.50;99.90;;;;;;2056380;28;20074;-76
2022/11/07 05:44:24;;;;;;;28.98;18.02;;;7.50;99.90;;;;;;2056163;28;20035;-75
2022/11/07 05:45:24;;;;;;;28.52;18.08;;;7.50;99.90;;;;;;2056691;28;20023;-76
2022/11/07 05:46:25;;;;;;;27.35;17.13;;;7.50;99.90;;;;;;2056598;28;20494;-76
2022/11/07 05:47:25;;;;;;;27.88;17.30;;;7.50;99.90;;;;;;2056473;28;20023;-76
2022/11/07 05:48:26;;;;;;;26.70;16.90;;;7.50;99.90;;;;;;2057172;28;20031;-76
2022/11/07 05:49:27;;;;;;;28.10;17.50;;;7.50;99.90;;;;;;2057023;28;20576;-76
2022/11/07 05:50:29;;;;;;;31.27;18.55;;;7.50;99.90;;;;;;2056983;28;20042;-76